Terminal Aerodrome Forecast
Issued by NWS

Home | Current Version | Previous Version | Text Only | Print | Product List | Glossary Off
Versions: 1 2 3 4 5 6 7 8 9 10 11 12 13

000
FTUS43 KBIS 131737
TAFJMS
TAF
KJMS 131737Z 1318/1418 18016G21KT P6SM SCT060
     FM131900 19016KT P6SM SKC
     FM132300 21008KT P6SM SKC
     FM140500 25008KT P6SM SKC
     FM141000 28007KT P6SM SKC=

USA.gov is the U.S. government's official web portal to all federal, state and local government web resources and services.